sensor_id;sensor_type;location;lat;lon;timestamp;temperature;humidity
71523;HTU21D;59343;51.102;5.884;2023-04-01T00:00:45;11.29;87.22
71523;HTU21D;59343;51.102;5.884;2023-04-01T00:03:11;11.24;87.35
71523;HTU21D;59343;51.102;5.884;2023-04-01T00:05:37;11.28;87.15
71523;HTU21D;59343;51.102;5.884;2023-04-01T00:08:03;11.30;86.99
71523;HTU21D;59343;51.102;5.884;2023-04-01T00:10:29;11.27;87.01
71523;HTU21D;59343;51.102;5.884;2023-04-01T00:12:55;11.29;87.07
71523;HTU21D;59343;51.102;5.884;2023-04-01T00:15:21;11.30;86.90
71523;HTU21D;59343;51.102;5.884;2023-04-01T00:17:47;11.28;87.06
71523;HTU21D;59343;51.102;5.884;2023-04-01T00:20:14;11.28;86.81
71523;HTU21D;59343;51.102;5.884;2023-04-01T00:22:40;11.27;86.93
71523;HTU21D;59343;51.102;5.884;2023-04-01T00:25:07;11.27;87.01
71523;HTU21D;59343;51.102;5.884;2023-04-01T00:27:33;11.25;86.95
71523;HTU21D;59343;51.102;5.884;2023-04-01T00:29:59;11.28;86.99
71523;HTU21D;59343;51.102;5.884;2023-04-01T00:32:27;11.24;87.18
71523;HTU21D;59343;51.102;5.884;2023-04-01T00:34:54;11.24;86.93
71523;HTU21D;59343;51.102;5.884;2023-04-01T00:37:20;11.27;86.90
71523;HTU21D;59343;51.102;5.884;2023-04-01T00:39:47;11.29;86.86
71523;HTU21D;59343;51.102;5.884;2023-04-01T00:42:13;11.25;86.83
71523;HTU21D;59343;51.102;5.884;2023-04-01T00:44:40;11.24;86.85
71523;HTU21D;59343;51.102;5.884;2023-04-01T00:47:06;11.25;86.73
71523;HTU21D;59343;51.102;5.884;2023-04-01T00:49:39;11.25;86.61
71523;HTU21D;59343;51.102;5.884;2023-04-01T00:52:08;11.19;86.84
71523;HTU21D;59343;51.102;5.884;2023-04-01T00:54:38;11.20;86.87
71523;HTU21D;59343;51.102;5.884;2023-04-01T00:59:39;11.18;87.00
71523;HTU21D;59343;51.102;5.884;2023-04-01T01:02:10;11.17;87.07
71523;HTU21D;59343;51.102;5.884;2023-04-01T01:04:36;11.17;87.14
71523;HTU21D;59343;51.102;5.884;2023-04-01T01:07:20;11.14;87.41
71523;HTU21D;59343;51.102;5.884;2023-04-01T01:10:04;11.13;87.47
71523;HTU21D;59343;51.102;5.884;2023-04-01T01:12:39;11.08;87.56
71523;HTU21D;59343;51.102;5.884;2023-04-01T01:15:25;11.08;87.81
71523;HTU21D;59343;51.102;5.884;2023-04-01T01:18:07;11.09;87.75
71523;HTU21D;59343;51.102;5.884;2023-04-01T01:26:48;11.04;87.95
71523;HTU21D;59343;51.102;5.884;2023-04-01T01:32:09;11.01;88.32
71523;HTU21D;59343;51.102;5.884;2023-04-01T01:35:02;11.03;88.22
71523;HTU21D;59343;51.102;5.884;2023-04-01T01:37:31;11.07;88.28
71523;HTU21D;59343;51.102;5.884;2023-04-01T01:40:04;11.04;88.33
71523;HTU21D;59343;51.102;5.884;2023-04-01T01:42:37;11.08;88.35
71523;HTU21D;59343;51.102;5.884;2023-04-01T01:45:06;11.05;88.41
71523;HTU21D;59343;51.102;5.884;2023-04-01T01:47:35;11.07;88.41
71523;HTU21D;59343;51.102;5.884;2023-04-01T01:50:04;11.04;88.57
71523;HTU21D;59343;51.102;5.884;2023-04-01T01:52:31;11.03;88.64
71523;HTU21D;59343;51.102;5.884;2023-04-01T01:54:58;11.04;88.82
71523;HTU21D;59343;51.102;5.884;2023-04-01T01:57:34;11.00;89.15
71523;HTU21D;59343;51.102;5.884;2023-04-01T02:00:10;11.00;89.20
71523;HTU21D;59343;51.102;5.884;2023-04-01T02:02:43;11.00;89.27
71523;HTU21D;59343;51.102;5.884;2023-04-01T02:05:22;11.01;89.41
71523;HTU21D;59343;51.102;5.884;2023-04-01T02:08:09;11.02;89.31
71523;HTU21D;59343;51.102;5.884;2023-04-01T02:10:41;10.99;89.38
71523;HTU21D;59343;51.102;5.884;2023-04-01T02:13:29;10.97;89.43
71523;HTU21D;59343;51.102;5.884;2023-04-01T02:16:01;10.95;89.60
71523;HTU21D;59343;51.102;5.884;2023-04-01T02:18:30;10.96;89.52
71523;HTU21D;59343;51.102;5.884;2023-04-01T02:21:00;10.95;89.61
71523;HTU21D;59343;51.102;5.884;2023-04-01T02:23:28;10.98;89.56
71523;HTU21D;59343;51.102;5.884;2023-04-01T02:25:54;10.99;89.47
71523;HTU21D;59343;51.102;5.884;2023-04-01T02:28:23;10.96;89.70
71523;HTU21D;59343;51.102;5.884;2023-04-01T02:30:51;10.98;89.55
71523;HTU21D;59343;51.102;5.884;2023-04-01T02:33:19;10.95;89.48
71523;HTU21D;59343;51.102;5.884;2023-04-01T02:35:46;10.95;89.65
71523;HTU21D;59343;51.102;5.884;2023-04-01T02:38:12;10.97;89.55
71523;HTU21D;59343;51.102;5.884;2023-04-01T02:40:50;10.92;89.68
71523;HTU21D;59343;51.102;5.884;2023-04-01T02:43:16;10.93;89.76
71523;HTU21D;59343;51.102;5.884;2023-04-01T02:45:43;10.94;89.74
71523;HTU21D;59343;51.102;5.884;2023-04-01T02:48:09;10.94;89.74
71523;HTU21D;59343;51.102;5.884;2023-04-01T02:50:35;10.95;89.82
71523;HTU21D;59343;51.102;5.884;2023-04-01T02:53:01;10.96;89.79
71523;HTU21D;59343;51.102;5.884;2023-04-01T02:55:29;11.00;89.69
71523;HTU21D;59343;51.102;5.884;2023-04-01T02:57:56;11.03;89.50
71523;HTU21D;59343;51.102;5.884;2023-04-01T03:00:22;11.01;89.49
71523;HTU21D;59343;51.102;5.884;2023-04-01T03:02:47;11.03;89.34
71523;HTU21D;59343;51.102;5.884;2023-04-01T03:05:14;11.04;89.27
71523;HTU21D;59343;51.102;5.884;2023-04-01T03:07:40;11.05;89.28
71523;HTU21D;59343;51.102;5.884;2023-04-01T03:10:06;11.08;89.12
71523;HTU21D;59343;51.102;5.884;2023-04-01T03:12:32;11.09;89.08
71523;HTU21D;59343;51.102;5.884;2023-04-01T03:14:58;11.11;89.03
71523;HTU21D;59343;51.102;5.884;2023-04-01T03:17:24;11.11;88.87
71523;HTU21D;59343;51.102;5.884;2023-04-01T03:19:50;11.10;88.97
71523;HTU21D;59343;51.102;5.884;2023-04-01T03:22:16;11.11;88.77
71523;HTU21D;59343;51.102;5.884;2023-04-01T03:24:42;11.11;88.99
71523;HTU21D;59343;51.102;5.884;2023-04-01T03:27:08;11.11;88.99
71523;HTU21D;59343;51.102;5.884;2023-04-01T03:29:34;11.12;88.94
71523;HTU21D;59343;51.102;5.884;2023-04-01T03:32:00;11.08;89.09
71523;HTU21D;59343;51.102;5.884;2023-04-01T03:34:26;11.09;89.06
71523;HTU21D;59343;51.102;5.884;2023-04-01T03:36:52;11.08;89.18
71523;HTU21D;59343;51.102;5.884;2023-04-01T03:39:18;11.09;89.05
71523;HTU21D;59343;51.102;5.884;2023-04-01T03:41:45;11.05;89.25
71523;HTU21D;59343;51.102;5.884;2023-04-01T03:44:12;11.07;89.26
71523;HTU21D;59343;51.102;5.884;2023-04-01T03:46:38;11.07;89.25
71523;HTU21D;59343;51.102;5.884;2023-04-01T03:49:09;11.08;89.12
71523;HTU21D;59343;51.102;5.884;2023-04-01T03:51:42;11.04;89.00
71523;HTU21D;59343;51.102;5.884;2023-04-01T03:54:10;10.99;89.25
71523;HTU21D;59343;51.102;5.884;2023-04-01T03:56:37;10.99;89.28
71523;HTU21D;59343;51.102;5.884;2023-04-01T03:59:05;10.98;89.28
71523;HTU21D;59343;51.102;5.884;2023-04-01T04:01:32;10.95;89.25
71523;HTU21D;59343;51.102;5.884;2023-04-01T04:03:58;10.95;89.25
71523;HTU21D;59343;51.102;5.884;2023-04-01T04:06:25;10.97;88.96
71523;HTU21D;59343;51.102;5.884;2023-04-01T04:08:52;10.97;88.77
71523;HTU21D;59343;51.102;5.884;2023-04-01T04:11:20;10.93;88.93
71523;HTU21D;59343;51.102;5.884;2023-04-01T04:13:47;10.92;89.16
71523;HTU21D;59343;51.102;5.884;2023-04-01T04:16:16;10.87;89.18
71523;HTU21D;59343;51.102;5.884;2023-04-01T04:18:49;10.89;89.54
71523;HTU21D;59343;51.102;5.884;2023-04-01T04:21:16;10.93;89.50
71523;HTU21D;59343;51.102;5.884;2023-04-01T04:23:43;10.93;89.34
71523;HTU21D;59343;51.102;5.884;2023-04-01T04:26:12;10.94;89.36
71523;HTU21D;59343;51.102;5.884;2023-04-01T04:28:39;10.93;89.34
71523;HTU21D;59343;51.102;5.884;2023-04-01T04:31:05;10.90;89.35
71523;HTU21D;59343;51.102;5.884;2023-04-01T04:33:34;10.90;89.41
71523;HTU21D;59343;51.102;5.884;2023-04-01T04:36:00;10.90;89.54
71523;HTU21D;59343;51.102;5.884;2023-04-01T04:38:27;10.89;89.55
71523;HTU21D;59343;51.102;5.884;2023-04-01T04:40:53;10.92;89.36
71523;HTU21D;59343;51.102;5.884;2023-04-01T04:43:19;10.89;89.34
71523;HTU21D;59343;51.102;5.884;2023-04-01T04:45:46;10.88;89.39
71523;HTU21D;59343;51.102;5.884;2023-04-01T04:48:15;10.90;89.31
71523;HTU21D;59343;51.102;5.884;2023-04-01T04:50:49;10.85;89.31
71523;HTU21D;59343;51.102;5.884;2023-04-01T04:53:17;10.92;89.05
71523;HTU21D;59343;51.102;5.884;2023-04-01T04:55:49;10.88;89.05
71523;HTU21D;59343;51.102;5.884;2023-04-01T04:58:27;10.86;89.03
71523;HTU21D;59343;51.102;5.884;2023-04-01T05:00:53;10.85;89.02
71523;HTU21D;59343;51.102;5.884;2023-04-01T05:03:25;10.85;88.85
71523;HTU21D;59343;51.102;5.884;2023-04-01T05:05:53;10.87;88.79
71523;HTU21D;59343;51.102;5.884;2023-04-01T05:08:19;10.84;88.77
71523;HTU21D;59343;51.102;5.884;2023-04-01T05:10:46;10.83;88.93
71523;HTU21D;59343;51.102;5.884;2023-04-01T05:13:12;10.84;88.89
71523;HTU21D;59343;51.102;5.884;2023-04-01T05:15:41;10.83;88.99
71523;HTU21D;59343;51.102;5.884;2023-04-01T05:18:07;10.83;88.89
71523;HTU21D;59343;51.102;5.884;2023-04-01T05:20:33;10.88;88.73
71523;HTU21D;59343;51.102;5.884;2023-04-01T05:23:00;10.87;88.82
71523;HTU21D;59343;51.102;5.884;2023-04-01T05:25:26;10.84;88.91
71523;HTU21D;59343;51.102;5.884;2023-04-01T05:27:52;10.87;88.85
71523;HTU21D;59343;51.102;5.884;2023-04-01T05:30:18;10.92;88.54
71523;HTU21D;59343;51.102;5.884;2023-04-01T05:33:14;10.85;88.64
71523;HTU21D;59343;51.102;5.884;2023-04-01T05:35:41;10.85;88.80
71523;HTU21D;59343;51.102;5.884;2023-04-01T05:38:07;10.87;88.64
71523;HTU21D;59343;51.102;5.884;2023-04-01T05:40:34;10.84;88.93
71523;HTU21D;59343;51.102;5.884;2023-04-01T05:43:01;10.78;89.14
71523;HTU21D;59343;51.102;5.884;2023-04-01T05:45:26;10.70;89.66
71523;HTU21D;59343;51.102;5.884;2023-04-01T05:48:18;10.67;89.66
71523;HTU21D;59343;51.102;5.884;2023-04-01T05:50:44;10.67;89.96
71523;HTU21D;59343;51.102;5.884;2023-04-01T05:53:11;10.69;89.86
71523;HTU21D;59343;51.102;5.884;2023-04-01T05:55:39;10.64;90.24
71523;HTU21D;59343;51.102;5.884;2023-04-01T05:58:05;10.67;90.34
71523;HTU21D;59343;51.102;5.884;2023-04-01T06:00:32;10.71;90.31
71523;HTU21D;59343;51.102;5.884;2023-04-01T06:02:59;10.68;90.41
71523;HTU21D;59343;51.102;5.884;2023-04-01T06:05:29;10.70;90.20
71523;HTU21D;59343;51.102;5.884;2023-04-01T06:08:00;10.70;90.31
71523;HTU21D;59343;51.102;5.884;2023-04-01T06:13:30;10.74;90.24
71523;HTU21D;59343;51.102;5.884;2023-04-01T06:22:03;10.74;90.04
71523;HTU21D;59343;51.102;5.884;2023-04-01T06:37:11;10.81;89.63
71523;HTU21D;59343;51.102;5.884;2023-04-01T06:42:35;10.75;89.86
71523;HTU21D;59343;51.102;5.884;2023-04-01T06:51:07;10.75;90.08
71523;HTU21D;59343;51.102;5.884;2023-04-01T06:54:10;10.81;90.09
71523;HTU21D;59343;51.102;5.884;2023-04-01T06:57:05;10.82;90.34
71523;HTU21D;59343;51.102;5.884;2023-04-01T06:59:37;10.83;90.52
71523;HTU21D;59343;51.102;5.884;2023-04-01T07:04:43;10.86;90.33
71523;HTU21D;59343;51.102;5.884;2023-04-01T07:07:21;10.83;90.53
71523;HTU21D;59343;51.102;5.884;2023-04-01T07:09:57;10.80;90.67
71523;HTU21D;59343;51.102;5.884;2023-04-01T07:12:41;10.83;90.53
71523;HTU21D;59343;51.102;5.884;2023-04-01T07:15:33;10.82;90.45
71523;HTU21D;59343;51.102;5.884;2023-04-01T07:18:12;10.84;90.32
71523;HTU21D;59343;51.102;5.884;2023-04-01T07:20:40;10.82;90.65
71523;HTU21D;59343;51.102;5.884;2023-04-01T07:23:33;10.81;90.57
71523;HTU21D;59343;51.102;5.884;2023-04-01T07:26:23;10.81;90.60
71523;HTU21D;59343;51.102;5.884;2023-04-01T07:29:13;10.79;90.50
71523;HTU21D;59343;51.102;5.884;2023-04-01T07:32:16;10.82;90.40
71523;HTU21D;59343;51.102;5.884;2023-04-01T07:35:22;10.88;90.27
71523;HTU21D;59343;51.102;5.884;2023-04-01T07:38:19;10.92;90.37
71523;HTU21D;59343;51.102;5.884;2023-04-01T07:44:00;10.96;89.77
71523;HTU21D;59343;51.102;5.884;2023-04-01T07:46:49;10.93;90.06
71523;HTU21D;59343;51.102;5.884;2023-04-01T07:49:26;10.93;90.16
71523;HTU21D;59343;51.102;5.884;2023-04-01T07:52:09;10.94;90.38
71523;HTU21D;59343;51.102;5.884;2023-04-01T07:54:53;10.96;90.53
71523;HTU21D;59343;51.102;5.884;2023-04-01T07:57:34;10.97;90.37
71523;HTU21D;59343;51.102;5.884;2023-04-01T08:00:18;11.00;90.56
71523;HTU21D;59343;51.102;5.884;2023-04-01T08:08:40;11.00;90.45
71523;HTU21D;59343;51.102;5.884;2023-04-01T08:11:50;10.97;90.66
71523;HTU21D;59343;51.102;5.884;2023-04-01T08:14:55;11.02;90.53
71523;HTU21D;59343;51.102;5.884;2023-04-01T08:20:50;11.05;90.24
71523;HTU21D;59343;51.102;5.884;2023-04-01T08:23:37;11.10;89.95
71523;HTU21D;59343;51.102;5.884;2023-04-01T08:33:55;11.09;89.60
71523;HTU21D;59343;51.102;5.884;2023-04-01T08:36:33;11.14;89.66
71523;HTU21D;59343;51.102;5.884;2023-04-01T08:39:23;11.13;89.36
71523;HTU21D;59343;51.102;5.884;2023-04-01T08:53:48;11.20;89.36
71523;HTU21D;59343;51.102;5.884;2023-04-01T08:56:34;11.30;89.46
71523;HTU21D;59343;51.102;5.884;2023-04-01T09:05:17;11.34;89.31
71523;HTU21D;59343;51.102;5.884;2023-04-01T09:08:15;11.33;89.12
71523;HTU21D;59343;51.102;5.884;2023-04-01T09:21:37;11.34;89.50
71523;HTU21D;59343;51.102;5.884;2023-04-01T09:29:40;11.33;89.44
71523;HTU21D;59343;51.102;5.884;2023-04-01T09:32:41;11.31;89.21
71523;HTU21D;59343;51.102;5.884;2023-04-01T09:44:03;11.28;89.51
71523;HTU21D;59343;51.102;5.884;2023-04-01T09:52:51;11.31;89.31
71523;HTU21D;59343;51.102;5.884;2023-04-01T10:01:40;11.34;89.31
71523;HTU21D;59343;51.102;5.884;2023-04-01T10:07:35;11.44;89.09
71523;HTU21D;59343;51.102;5.884;2023-04-01T10:10:18;11.52;88.71
71523;HTU21D;59343;51.102;5.884;2023-04-01T10:19:03;11.62;88.35
71523;HTU21D;59343;51.102;5.884;2023-04-01T12:01:19;12.93;83.66
71523;HTU21D;59343;51.102;5.884;2023-04-01T12:03:54;12.88;83.61
71523;HTU21D;59343;51.102;5.884;2023-04-01T12:09:42;12.84;83.32
71523;HTU21D;59343;51.102;5.884;2023-04-01T12:12:38;12.81;82.89
71523;HTU21D;59343;51.102;5.884;2023-04-01T12:15:23;12.76;82.74
71523;HTU21D;59343;51.102;5.884;2023-04-01T12:46:47;13.24;80.88
71523;HTU21D;59343;51.102;5.884;2023-04-01T12:55:17;13.35;80.50
71523;HTU21D;59343;51.102;5.884;2023-04-01T13:27:12;12.56;83.13
71523;HTU21D;59343;51.102;5.884;2023-04-01T13:29:41;12.50;83.32
71523;HTU21D;59343;51.102;5.884;2023-04-01T13:32:33;12.50;83.31
71523;HTU21D;59343;51.102;5.884;2023-04-01T13:40:42;12.71;83.20
71523;HTU21D;59343;51.102;5.884;2023-04-01T13:43:35;12.78;83.17
71523;HTU21D;59343;51.102;5.884;2023-04-01T13:49:02;12.80;83.24
71523;HTU21D;59343;51.102;5.884;2023-04-01T13:54:15;12.62;83.23
71523;HTU21D;59343;51.102;5.884;2023-04-01T13:57:17;12.52;83.29
71523;HTU21D;59343;51.102;5.884;2023-04-01T14:00:19;12.47;83.97
71523;HTU21D;59343;51.102;5.884;2023-04-01T14:08:47;12.46;83.81
71523;HTU21D;59343;51.102;5.884;2023-04-01T14:19:59;12.41;83.36
71523;HTU21D;59343;51.102;5.884;2023-04-01T14:28:45;12.47;83.32
71523;HTU21D;59343;51.102;5.884;2023-04-01T14:31:30;12.47;83.26
71523;HTU21D;59343;51.102;5.884;2023-04-01T14:37:15;12.43;83.02
71523;HTU21D;59343;51.102;5.884;2023-04-01T14:51:28;12.36;83.82
71523;HTU21D;59343;51.102;5.884;2023-04-01T14:54:04;12.33;84.19
71523;HTU21D;59343;51.102;5.884;2023-04-01T14:56:50;12.27;84.09
71523;HTU21D;59343;51.102;5.884;2023-04-01T15:04:58;12.15;84.13
71523;HTU21D;59343;51.102;5.884;2023-04-01T15:19:14;12.18;83.99
71523;HTU21D;59343;51.102;5.884;2023-04-01T15:21:59;12.18;83.94
71523;HTU21D;59343;51.102;5.884;2023-04-01T15:27:39;12.22;84.32
71523;HTU21D;59343;51.102;5.884;2023-04-01T22:56:33;9.95;88.98
71523;HTU21D;59343;51.102;5.884;2023-04-01T22:59:31;9.96;88.96
71523;HTU21D;59343;51.102;5.884;2023-04-01T23:02:19;9.92;88.90
71523;HTU21D;59343;51.102;5.884;2023-04-01T23:04:54;9.97;88.77
71523;HTU21D;59343;51.102;5.884;2023-04-01T23:07:48;9.96;88.62
71523;HTU21D;59343;51.102;5.884;2023-04-01T23:10:26;9.89;88.49
71523;HTU21D;59343;51.102;5.884;2023-04-01T23:12:58;9.82;88.58
71523;HTU21D;59343;51.102;5.884;2023-04-01T23:15:28;9.85;88.57
71523;HTU21D;59343;51.102;5.884;2023-04-01T23:26:40;9.79;88.16
71523;HTU21D;59343;51.102;5.884;2023-04-01T23:29:14;9.77;88.05
71523;HTU21D;59343;51.102;5.884;2023-04-01T23:31:45;9.72;87.98
71523;HTU21D;59343;51.102;5.884;2023-04-01T23:36:44;9.60;88.50
71523;HTU21D;59343;51.102;5.884;2023-04-01T23:39:38;9.56;88.73
71523;HTU21D;59343;51.102;5.884;2023-04-01T23:45:01;9.54;88.88
71523;HTU21D;59343;51.102;5.884;2023-04-01T23:47:33;9.42;89.11
71523;HTU21D;59343;51.102;5.884;2023-04-01T23:50:12;9.39;89.10
71523;HTU21D;59343;51.102;5.884;2023-04-01T23:52:52;9.31;89.21
71523;HTU21D;59343;51.102;5.884;2023-04-01T23:55:25;9.30;89.24
